sensor_id;sensor_type;location;lat;lon;timestamp;temperature;humidity
69739;DHT22;66905;51.012;4.724;2023-02-03T00:00:02;9.90;83.60
69739;DHT22;66905;51.012;4.724;2023-02-03T00:02:28;9.80;83.80
69739;DHT22;66905;51.012;4.724;2023-02-03T00:04:54;9.80;83.90
69739;DHT22;66905;51.012;4.724;2023-02-03T00:07:19;9.90;83.70
69739;DHT22;66905;51.012;4.724;2023-02-03T00:09:47;9.80;83.70
69739;DHT22;66905;51.012;4.724;2023-02-03T00:12:13;9.80;83.60
69739;DHT22;66905;51.012;4.724;2023-02-03T00:14:39;9.90;83.50
69739;DHT22;66905;51.012;4.724;2023-02-03T00:17:04;9.90;83.50
69739;DHT22;66905;51.012;4.724;2023-02-03T00:19:32;9.80;83.50
69739;DHT22;66905;51.012;4.724;2023-02-03T00:22:01;9.80;83.80
69739;DHT22;66905;51.012;4.724;2023-02-03T00:24:26;9.80;84.50
69739;DHT22;66905;51.012;4.724;2023-02-03T00:26:52;9.80;83.60
69739;DHT22;66905;51.012;4.724;2023-02-03T00:29:20;9.80;83.60
69739;DHT22;66905;51.012;4.724;2023-02-03T00:31:53;9.80;83.90
69739;DHT22;66905;51.012;4.724;2023-02-03T00:34:27;9.80;83.90
69739;DHT22;66905;51.012;4.724;2023-02-03T00:36:56;9.90;83.70
69739;DHT22;66905;51.012;4.724;2023-02-03T00:39:22;9.80;83.90
69739;DHT22;66905;51.012;4.724;2023-02-03T00:41:48;9.80;83.80
69739;DHT22;66905;51.012;4.724;2023-02-03T00:44:13;9.90;84.20
69739;DHT22;66905;51.012;4.724;2023-02-03T00:46:39;9.80;84.20
69739;DHT22;66905;51.012;4.724;2023-02-03T00:49:05;9.90;84.40
69739;DHT22;66905;51.012;4.724;2023-02-03T00:51:32;9.90;83.90
69739;DHT22;66905;51.012;4.724;2023-02-03T00:53:58;9.90;83.90
69739;DHT22;66905;51.012;4.724;2023-02-03T00:56:23;9.90;83.30
69739;DHT22;66905;51.012;4.724;2023-02-03T00:58:49;9.90;83.60
69739;DHT22;66905;51.012;4.724;2023-02-03T01:01:17;9.90;83.80
69739;DHT22;66905;51.012;4.724;2023-02-03T01:03:43;9.90;83.60
69739;DHT22;66905;51.012;4.724;2023-02-03T01:06:09;9.90;83.60
69739;DHT22;66905;51.012;4.724;2023-02-03T01:08:35;9.90;83.50
69739;DHT22;66905;51.012;4.724;2023-02-03T01:11:12;9.90;83.60
69739;DHT22;66905;51.012;4.724;2023-02-03T01:13:39;9.90;83.40
69739;DHT22;66905;51.012;4.724;2023-02-03T01:16:09;9.90;83.60
69739;DHT22;66905;51.012;4.724;2023-02-03T01:18:37;9.90;83.50
69739;DHT22;66905;51.012;4.724;2023-02-03T01:21:15;9.90;83.70
69739;DHT22;66905;51.012;4.724;2023-02-03T01:23:42;9.90;83.90
69739;DHT22;66905;51.012;4.724;2023-02-03T01:26:12;10.00;83.80
69739;DHT22;66905;51.012;4.724;2023-02-03T01:28:38;10.00;83.70
69739;DHT22;66905;51.012;4.724;2023-02-03T01:31:16;9.90;83.90
69739;DHT22;66905;51.012;4.724;2023-02-03T01:33:44;10.00;84.00
69739;DHT22;66905;51.012;4.724;2023-02-03T01:36:13;10.00;83.50
69739;DHT22;66905;51.012;4.724;2023-02-03T01:38:42;10.00;83.50
69739;DHT22;66905;51.012;4.724;2023-02-03T01:41:17;10.00;83.50
69739;DHT22;66905;51.012;4.724;2023-02-03T01:43:49;10.00;83.80
69739;DHT22;66905;51.012;4.724;2023-02-03T01:48:41;9.90;83.80
69739;DHT22;66905;51.012;4.724;2023-02-03T01:51:06;9.90;83.20
69739;DHT22;66905;51.012;4.724;2023-02-03T01:53:33;10.00;83.40
69739;DHT22;66905;51.012;4.724;2023-02-03T01:56:00;10.00;83.60
69739;DHT22;66905;51.012;4.724;2023-02-03T01:58:30;10.00;83.60
69739;DHT22;66905;51.012;4.724;2023-02-03T02:00:57;10.00;83.40
69739;DHT22;66905;51.012;4.724;2023-02-03T02:03:33;9.90;83.50
69739;DHT22;66905;51.012;4.724;2023-02-03T02:06:04;9.90;83.40
69739;DHT22;66905;51.012;4.724;2023-02-03T02:08:30;9.90;83.40
69739;DHT22;66905;51.012;4.724;2023-02-03T02:10:58;9.90;83.20
69739;DHT22;66905;51.012;4.724;2023-02-03T02:13:30;9.90;83.10
69739;DHT22;66905;51.012;4.724;2023-02-03T02:41:19;10.00;82.70
69739;DHT22;66905;51.012;4.724;2023-02-03T02:46:46;9.90;83.00
69739;DHT22;66905;51.012;4.724;2023-02-03T02:49:29;9.90;83.00
69739;DHT22;66905;51.012;4.724;2023-02-03T02:52:01;9.90;82.70
69739;DHT22;66905;51.012;4.724;2023-02-03T02:54:30;9.90;82.70
69739;DHT22;66905;51.012;4.724;2023-02-03T02:57:00;9.90;82.50
69739;DHT22;66905;51.012;4.724;2023-02-03T02:59:29;9.90;82.20
69739;DHT22;66905;51.012;4.724;2023-02-03T03:02:00;9.90;82.30
69739;DHT22;66905;51.012;4.724;2023-02-03T03:04:30;9.90;82.50
69739;DHT22;66905;51.012;4.724;2023-02-03T03:07:00;9.80;82.50
69739;DHT22;66905;51.012;4.724;2023-02-03T03:09:42;9.90;82.70
69739;DHT22;66905;51.012;4.724;2023-02-03T03:12:16;9.90;82.50
69739;DHT22;66905;51.012;4.724;2023-02-03T03:14:48;9.80;82.50
69739;DHT22;66905;51.012;4.724;2023-02-03T03:17:19;9.80;82.50
69739;DHT22;66905;51.012;4.724;2023-02-03T03:19:49;9.80;82.60
69739;DHT22;66905;51.012;4.724;2023-02-03T03:22:18;9.80;82.50
69739;DHT22;66905;51.012;4.724;2023-02-03T03:24:55;9.80;82.70
69739;DHT22;66905;51.012;4.724;2023-02-03T03:27:25;9.90;81.90
69739;DHT22;66905;51.012;4.724;2023-02-03T03:30:16;9.90;81.90
69739;DHT22;66905;51.012;4.724;2023-02-03T03:32:44;9.90;81.60
69739;DHT22;66905;51.012;4.724;2023-02-03T03:35:09;9.90;81.60
69739;DHT22;66905;51.012;4.724;2023-02-03T03:37:44;9.90;81.70
69739;DHT22;66905;51.012;4.724;2023-02-03T03:40:27;9.90;81.70
69739;DHT22;66905;51.012;4.724;2023-02-03T03:43:01;9.90;81.50
69739;DHT22;66905;51.012;4.724;2023-02-03T03:45:52;9.80;81.70
69739;DHT22;66905;51.012;4.724;2023-02-03T03:51:08;9.90;81.30
69739;DHT22;66905;51.012;4.724;2023-02-03T03:53:39;10.00;81.00
69739;DHT22;66905;51.012;4.724;2023-02-03T03:56:07;9.90;80.80
69739;DHT22;66905;51.012;4.724;2023-02-03T03:58:36;9.80;81.30
69739;DHT22;66905;51.012;4.724;2023-02-03T04:01:05;9.80;81.30
69739;DHT22;66905;51.012;4.724;2023-02-03T04:03:49;9.90;81.40
69739;DHT22;66905;51.012;4.724;2023-02-03T04:06:17;9.80;81.60
69739;DHT22;66905;51.012;4.724;2023-02-03T04:08:42;9.80;81.50
69739;DHT22;66905;51.012;4.724;2023-02-03T04:11:11;9.90;81.50
69739;DHT22;66905;51.012;4.724;2023-02-03T04:13:56;9.90;81.30
69739;DHT22;66905;51.012;4.724;2023-02-03T04:16:22;9.90;81.50
69739;DHT22;66905;51.012;4.724;2023-02-03T04:18:48;9.90;81.70
69739;DHT22;66905;51.012;4.724;2023-02-03T04:21:13;9.80;81.70
69739;DHT22;66905;51.012;4.724;2023-02-03T04:23:43;9.80;81.90
69739;DHT22;66905;51.012;4.724;2023-02-03T04:26:09;9.80;81.70
69739;DHT22;66905;51.012;4.724;2023-02-03T04:28:35;9.80;81.80
69739;DHT22;66905;51.012;4.724;2023-02-03T04:31:00;9.80;81.90
69739;DHT22;66905;51.012;4.724;2023-02-03T04:33:26;9.80;81.70
69739;DHT22;66905;51.012;4.724;2023-02-03T04:35:52;9.80;81.30
69739;DHT22;66905;51.012;4.724;2023-02-03T04:38:17;9.80;82.10
69739;DHT22;66905;51.012;4.724;2023-02-03T04:40:43;9.80;81.90
69739;DHT22;66905;51.012;4.724;2023-02-03T04:43:10;9.80;81.70
69739;DHT22;66905;51.012;4.724;2023-02-03T04:45:36;9.80;81.90
69739;DHT22;66905;51.012;4.724;2023-02-03T04:48:02;9.70;81.80
69739;DHT22;66905;51.012;4.724;2023-02-03T04:50:31;9.70;81.90
69739;DHT22;66905;51.012;4.724;2023-02-03T04:52:58;9.80;81.90
69739;DHT22;66905;51.012;4.724;2023-02-03T04:55:26;9.80;81.50
69739;DHT22;66905;51.012;4.724;2023-02-03T04:57:59;9.80;81.40
69739;DHT22;66905;51.012;4.724;2023-02-03T05:00:26;9.80;81.60
69739;DHT22;66905;51.012;4.724;2023-02-03T05:02:54;9.80;81.40
69739;DHT22;66905;51.012;4.724;2023-02-03T05:05:20;9.70;81.80
69739;DHT22;66905;51.012;4.724;2023-02-03T05:07:46;9.70;81.60
69739;DHT22;66905;51.012;4.724;2023-02-03T05:10:12;9.80;81.60
69739;DHT22;66905;51.012;4.724;2023-02-03T05:12:40;9.80;81.60
69739;DHT22;66905;51.012;4.724;2023-02-03T05:15:08;9.80;81.10
69739;DHT22;66905;51.012;4.724;2023-02-03T05:17:33;9.80;80.90
69739;DHT22;66905;51.012;4.724;2023-02-03T05:20:04;9.80;81.00
69739;DHT22;66905;51.012;4.724;2023-02-03T05:22:32;9.80;80.80
69739;DHT22;66905;51.012;4.724;2023-02-03T05:25:00;9.70;80.80
69739;DHT22;66905;51.012;4.724;2023-02-03T05:27:26;9.70;80.90
69739;DHT22;66905;51.012;4.724;2023-02-03T05:29:51;9.70;80.80
69739;DHT22;66905;51.012;4.724;2023-02-03T05:32:17;9.70;80.90
69739;DHT22;66905;51.012;4.724;2023-02-03T05:34:43;9.70;80.70
69739;DHT22;66905;51.012;4.724;2023-02-03T05:37:08;9.80;81.00
69739;DHT22;66905;51.012;4.724;2023-02-03T05:39:34;9.80;81.10
69739;DHT22;66905;51.012;4.724;2023-02-03T05:42:00;9.70;81.10
69739;DHT22;66905;51.012;4.724;2023-02-03T05:44:27;9.80;80.40
69739;DHT22;66905;51.012;4.724;2023-02-03T05:46:55;9.80;80.60
69739;DHT22;66905;51.012;4.724;2023-02-03T05:49:22;9.80;80.50
69739;DHT22;66905;51.012;4.724;2023-02-03T05:51:52;9.80;80.40
69739;DHT22;66905;51.012;4.724;2023-02-03T05:54:18;9.80;80.20
69739;DHT22;66905;51.012;4.724;2023-02-03T05:56:46;9.80;80.20
69739;DHT22;66905;51.012;4.724;2023-02-03T05:59:15;9.80;80.10
69739;DHT22;66905;51.012;4.724;2023-02-03T06:01:41;9.80;80.20
69739;DHT22;66905;51.012;4.724;2023-02-03T06:04:06;9.90;80.00
69739;DHT22;66905;51.012;4.724;2023-02-03T06:06:32;9.90;79.80
69739;DHT22;66905;51.012;4.724;2023-02-03T06:09:05;9.80;80.10
69739;DHT22;66905;51.012;4.724;2023-02-03T06:11:34;9.80;80.20
69739;DHT22;66905;51.012;4.724;2023-02-03T06:14:01;9.80;80.70
69739;DHT22;66905;51.012;4.724;2023-02-03T06:16:27;9.70;80.70
69739;DHT22;66905;51.012;4.724;2023-02-03T06:18:54;9.70;80.70
69739;DHT22;66905;51.012;4.724;2023-02-03T06:21:24;9.70;80.70
69739;DHT22;66905;51.012;4.724;2023-02-03T06:23:52;9.70;80.60
69739;DHT22;66905;51.012;4.724;2023-02-03T06:26:17;9.80;80.70
69739;DHT22;66905;51.012;4.724;2023-02-03T06:28:43;9.80;80.20
69739;DHT22;66905;51.012;4.724;2023-02-03T06:31:09;9.80;80.80
69739;DHT22;66905;51.012;4.724;2023-02-03T06:33:34;9.80;80.40
69739;DHT22;66905;51.012;4.724;2023-02-03T06:36:02;9.80;80.20
69739;DHT22;66905;51.012;4.724;2023-02-03T06:38:28;9.80;80.20
69739;DHT22;66905;51.012;4.724;2023-02-03T06:40:54;9.80;79.70
69739;DHT22;66905;51.012;4.724;2023-02-03T06:43:19;9.80;79.80
69739;DHT22;66905;51.012;4.724;2023-02-03T06:45:47;9.80;79.70
69739;DHT22;66905;51.012;4.724;2023-02-03T06:48:14;9.80;79.60
69739;DHT22;66905;51.012;4.724;2023-02-03T06:50:40;9.80;79.60
69739;DHT22;66905;51.012;4.724;2023-02-03T06:53:07;9.90;79.20
69739;DHT22;66905;51.012;4.724;2023-02-03T06:55:33;9.90;79.10
69739;DHT22;66905;51.012;4.724;2023-02-03T06:58:01;9.90;78.60
69739;DHT22;66905;51.012;4.724;2023-02-03T07:00:29;9.90;78.90
69739;DHT22;66905;51.012;4.724;2023-02-03T07:02:57;9.80;79.10
69739;DHT22;66905;51.012;4.724;2023-02-03T07:05:24;9.80;78.90
69739;DHT22;66905;51.012;4.724;2023-02-03T07:07:52;9.80;78.60
69739;DHT22;66905;51.012;4.724;2023-02-03T07:10:18;9.80;78.90
69739;DHT22;66905;51.012;4.724;2023-02-03T07:12:46;9.90;78.50
69739;DHT22;66905;51.012;4.724;2023-02-03T07:15:12;9.90;78.70
69739;DHT22;66905;51.012;4.724;2023-02-03T07:17:38;9.90;78.50
69739;DHT22;66905;51.012;4.724;2023-02-03T07:20:04;9.90;78.20
69739;DHT22;66905;51.012;4.724;2023-02-03T07:22:30;9.90;78.90
69739;DHT22;66905;51.012;4.724;2023-02-03T07:24:58;9.90;78.60
69739;DHT22;66905;51.012;4.724;2023-02-03T07:27:24;9.90;78.60
69739;DHT22;66905;51.012;4.724;2023-02-03T07:29:50;9.90;78.30
69739;DHT22;66905;51.012;4.724;2023-02-03T07:32:15;10.00;78.50
69739;DHT22;66905;51.012;4.724;2023-02-03T07:34:41;10.00;78.40
69739;DHT22;66905;51.012;4.724;2023-02-03T07:37:07;10.00;78.20
69739;DHT22;66905;51.012;4.724;2023-02-03T07:39:32;10.00;78.50
69739;DHT22;66905;51.012;4.724;2023-02-03T07:42:00;10.10;78.50
69739;DHT22;66905;51.012;4.724;2023-02-03T07:44:26;10.00;78.30
69739;DHT22;66905;51.012;4.724;2023-02-03T07:46:51;10.10;78.30
69739;DHT22;66905;51.012;4.724;2023-02-03T07:49:17;10.10;78.50
69739;DHT22;66905;51.012;4.724;2023-02-03T07:51:45;10.10;78.00
69739;DHT22;66905;51.012;4.724;2023-02-03T07:54:11;10.10;78.20
69739;DHT22;66905;51.012;4.724;2023-02-03T07:56:36;10.10;78.70
69739;DHT22;66905;51.012;4.724;2023-02-03T07:59:04;10.10;78.70
69739;DHT22;66905;51.012;4.724;2023-02-03T08:01:32;10.10;78.80
69739;DHT22;66905;51.012;4.724;2023-02-03T08:03:58;10.10;78.20
69739;DHT22;66905;51.012;4.724;2023-02-03T08:06:28;10.10;78.60
69739;DHT22;66905;51.012;4.724;2023-02-03T08:08:55;10.20;79.10
69739;DHT22;66905;51.012;4.724;2023-02-03T08:11:23;10.20;78.30
69739;DHT22;66905;51.012;4.724;2023-02-03T08:13:51;10.20;78.90
69739;DHT22;66905;51.012;4.724;2023-02-03T08:16:18;10.20;78.60
69739;DHT22;66905;51.012;4.724;2023-02-03T08:18:43;10.30;78.60
69739;DHT22;66905;51.012;4.724;2023-02-03T08:21:10;10.30;78.10
69739;DHT22;66905;51.012;4.724;2023-02-03T08:23:35;10.30;78.00
69739;DHT22;66905;51.012;4.724;2023-02-03T08:26:03;10.30;78.50
69739;DHT22;66905;51.012;4.724;2023-02-03T08:28:29;10.30;78.50
69739;DHT22;66905;51.012;4.724;2023-02-03T08:30:55;10.30;78.70
69739;DHT22;66905;51.012;4.724;2023-02-03T08:33:24;10.40;78.30
69739;DHT22;66905;51.012;4.724;2023-02-03T08:35:50;10.40;78.60
69739;DHT22;66905;51.012;4.724;2023-02-03T08:38:18;10.40;78.50
69739;DHT22;66905;51.012;4.724;2023-02-03T08:40:46;10.50;78.80
69739;DHT22;66905;51.012;4.724;2023-02-03T08:43:12;10.40;78.60
69739;DHT22;66905;51.012;4.724;2023-02-03T08:45:39;10.40;78.10
69739;DHT22;66905;51.012;4.724;2023-02-03T08:48:05;10.50;78.30
69739;DHT22;66905;51.012;4.724;2023-02-03T08:50:30;10.50;78.20
69739;DHT22;66905;51.012;4.724;2023-02-03T08:52:56;10.50;78.80
69739;DHT22;66905;51.012;4.724;2023-02-03T08:55:24;10.40;78.30
69739;DHT22;66905;51.012;4.724;2023-02-03T08:57:50;10.40;78.30
69739;DHT22;66905;51.012;4.724;2023-02-03T09:00:16;10.50;78.60
69739;DHT22;66905;51.012;4.724;2023-02-03T09:02:42;10.40;79.10
69739;DHT22;66905;51.012;4.724;2023-02-03T09:05:08;10.40;78.90
69739;DHT22;66905;51.012;4.724;2023-02-03T09:07:33;10.40;78.90
69739;DHT22;66905;51.012;4.724;2023-02-03T09:09:59;10.50;78.50
69739;DHT22;66905;51.012;4.724;2023-02-03T09:12:25;10.50;78.30
69739;DHT22;66905;51.012;4.724;2023-02-03T09:14:50;10.40;78.80
69739;DHT22;66905;51.012;4.724;2023-02-03T09:17:16;10.40;78.50
69739;DHT22;66905;51.012;4.724;2023-02-03T09:19:42;10.50;78.70
69739;DHT22;66905;51.012;4.724;2023-02-03T09:22:10;10.50;78.80
69739;DHT22;66905;51.012;4.724;2023-02-03T09:24:35;10.50;78.60
69739;DHT22;66905;51.012;4.724;2023-02-03T09:27:01;10.40;79.10
69739;DHT22;66905;51.012;4.724;2023-02-03T09:29:27;10.50;78.70
69739;DHT22;66905;51.012;4.724;2023-02-03T09:31:55;10.50;78.90
69739;DHT22;66905;51.012;4.724;2023-02-03T09:34:21;10.50;79.00
69739;DHT22;66905;51.012;4.724;2023-02-03T09:36:49;10.50;78.50
69739;DHT22;66905;51.012;4.724;2023-02-03T09:39:16;10.60;78.50
69739;DHT22;66905;51.012;4.724;2023-02-03T09:47:22;10.70;78.70
69739;DHT22;66905;51.012;4.724;2023-02-03T09:49:55;10.60;78.80
69739;DHT22;66905;51.012;4.724;2023-02-03T09:52:25;10.60;78.80
69739;DHT22;66905;51.012;4.724;2023-02-03T09:57:29;10.70;78.30
69739;DHT22;66905;51.012;4.724;2023-02-03T09:59:58;10.80;78.10
69739;DHT22;66905;51.012;4.724;2023-02-03T10:05:00;10.80;78.10
69739;DHT22;66905;51.012;4.724;2023-02-03T10:07:41;10.80;79.10
69739;DHT22;66905;51.012;4.724;2023-02-03T10:10:34;10.70;78.90
69739;DHT22;66905;51.012;4.724;2023-02-03T10:13:30;10.80;78.30
69739;DHT22;66905;51.012;4.724;2023-02-03T10:19:12;10.80;79.20
69739;DHT22;66905;51.012;4.724;2023-02-03T10:21:43;10.80;79.10
69739;DHT22;66905;51.012;4.724;2023-02-03T10:24:41;10.80;78.50
69739;DHT22;66905;51.012;4.724;2023-02-03T10:27:18;10.90;78.80
69739;DHT22;66905;51.012;4.724;2023-02-03T10:29:50;10.90;78.30
69739;DHT22;66905;51.012;4.724;2023-02-03T10:32:18;11.00;78.50
69739;DHT22;66905;51.012;4.724;2023-02-03T10:34:46;11.10;77.90
69739;DHT22;66905;51.012;4.724;2023-02-03T10:37:23;11.10;77.50
69739;DHT22;66905;51.012;4.724;2023-02-03T10:39:53;11.30;77.50
69739;DHT22;66905;51.012;4.724;2023-02-03T10:42:21;11.20;77.90
69739;DHT22;66905;51.012;4.724;2023-02-03T10:44:59;11.20;77.60
69739;DHT22;66905;51.012;4.724;2023-02-03T10:47:37;11.10;78.40
69739;DHT22;66905;51.012;4.724;2023-02-03T10:50:08;11.20;77.90
69739;DHT22;66905;51.012;4.724;2023-02-03T10:52:39;11.10;79.10
69739;DHT22;66905;51.012;4.724;2023-02-03T10:55:08;11.20;78.00
69739;DHT22;66905;51.012;4.724;2023-02-03T10:57:53;11.20;77.60
69739;DHT22;66905;51.012;4.724;2023-02-03T11:00:26;11.10;78.10
69739;DHT22;66905;51.012;4.724;2023-02-03T11:03:22;11.00;78.50
69739;DHT22;66905;51.012;4.724;2023-02-03T11:06:06;11.10;78.30
69739;DHT22;66905;51.012;4.724;2023-02-03T11:08:37;11.10;78.60
69739;DHT22;66905;51.012;4.724;2023-02-03T11:11:08;11.20;78.30
69739;DHT22;66905;51.012;4.724;2023-02-03T11:13:35;11.20;78.40
69739;DHT22;66905;51.012;4.724;2023-02-03T11:16:04;11.10;78.10
69739;DHT22;66905;51.012;4.724;2023-02-03T11:18:58;11.10;78.50
69739;DHT22;66905;51.012;4.724;2023-02-03T11:24:02;11.20;78.80
69739;DHT22;66905;51.012;4.724;2023-02-03T11:26:59;11.20;78.40
69739;DHT22;66905;51.012;4.724;2023-02-03T11:29:36;11.30;78.10
69739;DHT22;66905;51.012;4.724;2023-02-03T11:32:13;11.30;78.90
69739;DHT22;66905;51.012;4.724;2023-02-03T11:34:45;11.30;79.30
69739;DHT22;66905;51.012;4.724;2023-02-03T11:37:31;11.40;78.10
69739;DHT22;66905;51.012;4.724;2023-02-03T11:42:35;11.30;78.80
69739;DHT22;66905;51.012;4.724;2023-02-03T11:45:14;11.40;78.90
69739;DHT22;66905;51.012;4.724;2023-02-03T11:50:46;11.40;79.50
69739;DHT22;66905;51.012;4.724;2023-02-03T12:04:39;11.20;79.80
69739;DHT22;66905;51.012;4.724;2023-02-03T12:24:06;11.30;80.20
69739;DHT22;66905;51.012;4.724;2023-02-03T12:26:45;11.20;79.70
69739;DHT22;66905;51.012;4.724;2023-02-03T12:29:24;11.20;80.40
69739;DHT22;66905;51.012;4.724;2023-02-03T12:32:11;11.20;80.40
69739;DHT22;66905;51.012;4.724;2023-02-03T12:37:31;11.10;80.90
69739;DHT22;66905;51.012;4.724;2023-02-03T12:40:05;11.20;80.80
69739;DHT22;66905;51.012;4.724;2023-02-03T12:42:41;11.20;80.60
69739;DHT22;66905;51.012;4.724;2023-02-03T12:45:13;11.20;80.90
69739;DHT22;66905;51.012;4.724;2023-02-03T12:48:03;11.30;80.70
69739;DHT22;66905;51.012;4.724;2023-02-03T12:50:36;11.20;80.80
69739;DHT22;66905;51.012;4.724;2023-02-03T12:53:24;11.30;80.40
69739;DHT22;66905;51.012;4.724;2023-02-03T12:56:30;11.20;80.50
69739;DHT22;66905;51.012;4.724;2023-02-03T12:59:01;11.30;80.70
69739;DHT22;66905;51.012;4.724;2023-02-03T13:01:35;11.40;80.00
69739;DHT22;66905;51.012;4.724;2023-02-03T13:04:40;11.50;79.70
69739;DHT22;66905;51.012;4.724;2023-02-03T13:07:15;11.50;79.80
69739;DHT22;66905;51.012;4.724;2023-02-03T13:12:41;11.60;79.70
69739;DHT22;66905;51.012;4.724;2023-02-03T13:17:58;11.70;78.80
69739;DHT22;66905;51.012;4.724;2023-02-03T13:20:27;11.70;78.10
69739;DHT22;66905;51.012;4.724;2023-02-03T13:22:56;11.60;79.00
69739;DHT22;66905;51.012;4.724;2023-02-03T13:25:40;11.60;78.30
69739;DHT22;66905;51.012;4.724;2023-02-03T13:31:12;11.60;78.80
69739;DHT22;66905;51.012;4.724;2023-02-03T13:41:54;11.70;78.20
69739;DHT22;66905;51.012;4.724;2023-02-03T13:44:26;11.60;78.60
69739;DHT22;66905;51.012;4.724;2023-02-03T13:46:55;11.60;78.40
69739;DHT22;66905;51.012;4.724;2023-02-03T13:49:31;11.70;78.50
69739;DHT22;66905;51.012;4.724;2023-02-03T13:52:00;11.60;78.20
69739;DHT22;66905;51.012;4.724;2023-02-03T13:54:42;11.60;78.50
69739;DHT22;66905;51.012;4.724;2023-02-03T13:57:41;11.60;78.60
69739;DHT22;66905;51.012;4.724;2023-02-03T14:05:59;11.60;78.50
69739;DHT22;66905;51.012;4.724;2023-02-03T14:16:46;11.60;78.60
69739;DHT22;66905;51.012;4.724;2023-02-03T14:22:17;11.70;78.40
69739;DHT22;66905;51.012;4.724;2023-02-03T14:24:46;11.70;77.70
69739;DHT22;66905;51.012;4.724;2023-02-03T14:27:21;11.70;78.00
69739;DHT22;66905;51.012;4.724;2023-02-03T14:32:53;11.70;77.70
69739;DHT22;66905;51.012;4.724;2023-02-03T14:35:23;11.80;77.40
69739;DHT22;66905;51.012;4.724;2023-02-03T14:37:57;11.80;77.50
69739;DHT22;66905;51.012;4.724;2023-02-03T15:02:16;11.70;77.50
69739;DHT22;66905;51.012;4.724;2023-02-03T15:04:44;11.70;77.80
69739;DHT22;66905;51.012;4.724;2023-02-03T15:09:59;11.60;78.40
69739;DHT22;66905;51.012;4.724;2023-02-03T15:12:26;11.70;77.40
69739;DHT22;66905;51.012;4.724;2023-02-03T15:15:18;11.70;77.50
69739;DHT22;66905;51.012;4.724;2023-02-03T15:17:45;11.80;77.50
69739;DHT22;66905;51.012;4.724;2023-02-03T15:23:00;11.70;78.00
69739;DHT22;66905;51.012;4.724;2023-02-03T15:25:28;11.70;77.90
69739;DHT22;66905;51.012;4.724;2023-02-03T15:28:12;11.70;77.70
69739;DHT22;66905;51.012;4.724;2023-02-03T15:30:41;11.80;77.30
69739;DHT22;66905;51.012;4.724;2023-02-03T15:33:16;11.90;77.10
69739;DHT22;66905;51.012;4.724;2023-02-03T15:35:46;11.90;77.30
69739;DHT22;66905;51.012;4.724;2023-02-03T15:38:22;11.80;77.30
69739;DHT22;66905;51.012;4.724;2023-02-03T15:40:53;11.80;77.80
69739;DHT22;66905;51.012;4.724;2023-02-03T15:43:42;11.90;77.60
69739;DHT22;66905;51.012;4.724;2023-02-03T15:46:19;11.80;77.50
69739;DHT22;66905;51.012;4.724;2023-02-03T15:54:01;11.70;78.40
69739;DHT22;66905;51.012;4.724;2023-02-03T15:59:17;11.60;78.70
69739;DHT22;66905;51.012;4.724;2023-02-03T16:01:44;11.50;78.90
69739;DHT22;66905;51.012;4.724;2023-02-03T16:04:10;11.60;79.00
69739;DHT22;66905;51.012;4.724;2023-02-03T16:06:37;11.50;78.70
69739;DHT22;66905;51.012;4.724;2023-02-03T16:12:22;11.50;78.80
69739;DHT22;66905;51.012;4.724;2023-02-03T16:14:49;11.40;79.40
69739;DHT22;66905;51.012;4.724;2023-02-03T16:23:04;11.30;79.80
69739;DHT22;66905;51.012;4.724;2023-02-03T16:25:32;11.20;80.30
69739;DHT22;66905;51.012;4.724;2023-02-03T16:33:49;11.00;80.80
69739;DHT22;66905;51.012;4.724;2023-02-03T16:36:39;11.10;80.80
69739;DHT22;66905;51.012;4.724;2023-02-03T16:39:25;11.10;80.80
69739;DHT22;66905;51.012;4.724;2023-02-03T16:42:19;11.10;80.30
69739;DHT22;66905;51.012;4.724;2023-02-03T16:45:12;11.10;80.60
69739;DHT22;66905;51.012;4.724;2023-02-03T16:47:56;11.10;80.60
69739;DHT22;66905;51.012;4.724;2023-02-03T16:50:42;11.10;80.80
69739;DHT22;66905;51.012;4.724;2023-02-03T16:53:28;11.20;80.50
69739;DHT22;66905;51.012;4.724;2023-02-03T16:55:56;11.20;80.40
69739;DHT22;66905;51.012;4.724;2023-02-03T16:58:25;11.10;80.60
69739;DHT22;66905;51.012;4.724;2023-02-03T17:00:52;11.20;80.40
69739;DHT22;66905;51.012;4.724;2023-02-03T17:03:23;11.10;80.50
69739;DHT22;66905;51.012;4.724;2023-02-03T17:05:50;11.10;80.70
69739;DHT22;66905;51.012;4.724;2023-02-03T17:08:18;11.10;81.50
69739;DHT22;66905;51.012;4.724;2023-02-03T17:10:45;11.10;80.30
69739;DHT22;66905;51.012;4.724;2023-02-03T17:13:18;11.20;80.70
69739;DHT22;66905;51.012;4.724;2023-02-03T17:15:45;11.00;81.00
69739;DHT22;66905;51.012;4.724;2023-02-03T17:18:12;11.00;80.90
69739;DHT22;66905;51.012;4.724;2023-02-03T17:20:43;10.90;81.70
69739;DHT22;66905;51.012;4.724;2023-02-03T17:23:10;10.90;82.00
69739;DHT22;66905;51.012;4.724;2023-02-03T17:25:36;10.80;82.00
69739;DHT22;66905;51.012;4.724;2023-02-03T17:28:03;10.90;81.90
69739;DHT22;66905;51.012;4.724;2023-02-03T17:30:28;10.90;81.80
69739;DHT22;66905;51.012;4.724;2023-02-03T17:32:59;10.90;82.10
69739;DHT22;66905;51.012;4.724;2023-02-03T17:35:27;10.80;82.10
69739;DHT22;66905;51.012;4.724;2023-02-03T17:37:53;10.80;82.30
69739;DHT22;66905;51.012;4.724;2023-02-03T17:40:19;10.80;82.20
69739;DHT22;66905;51.012;4.724;2023-02-03T17:42:45;10.80;82.50
69739;DHT22;66905;51.012;4.724;2023-02-03T17:45:11;10.80;82.40
69739;DHT22;66905;51.012;4.724;2023-02-03T17:47:36;10.90;82.40
69739;DHT22;66905;51.012;4.724;2023-02-03T17:50:02;10.80;82.40
69739;DHT22;66905;51.012;4.724;2023-02-03T17:52:28;10.80;82.80
69739;DHT22;66905;51.012;4.724;2023-02-03T17:54:54;10.80;82.90
69739;DHT22;66905;51.012;4.724;2023-02-03T17:57:19;10.70;82.70
69739;DHT22;66905;51.012;4.724;2023-02-03T17:59:46;10.70;83.20
69739;DHT22;66905;51.012;4.724;2023-02-03T18:02:12;10.70;83.20
69739;DHT22;66905;51.012;4.724;2023-02-03T18:04:38;10.70;83.20
69739;DHT22;66905;51.012;4.724;2023-02-03T18:07:06;10.70;82.90
69739;DHT22;66905;51.012;4.724;2023-02-03T18:09:32;10.70;82.90
69739;DHT22;66905;51.012;4.724;2023-02-03T18:12:00;10.70;83.30
69739;DHT22;66905;51.012;4.724;2023-02-03T18:14:25;10.70;83.20
69739;DHT22;66905;51.012;4.724;2023-02-03T18:16:51;10.60;83.30
69739;DHT22;66905;51.012;4.724;2023-02-03T18:19:17;10.70;83.10
69739;DHT22;66905;51.012;4.724;2023-02-03T18:21:43;10.70;83.20
69739;DHT22;66905;51.012;4.724;2023-02-03T18:24:12;10.60;83.60
69739;DHT22;66905;51.012;4.724;2023-02-03T18:26:47;10.60;83.70
69739;DHT22;66905;51.012;4.724;2023-02-03T18:29:13;10.60;83.50
69739;DHT22;66905;51.012;4.724;2023-02-03T18:31:43;10.70;83.50
69739;DHT22;66905;51.012;4.724;2023-02-03T18:34:09;10.60;83.50
69739;DHT22;66905;51.012;4.724;2023-02-03T18:36:35;10.70;83.40
69739;DHT22;66905;51.012;4.724;2023-02-03T18:39:01;10.70;83.40
69739;DHT22;66905;51.012;4.724;2023-02-03T18:41:27;10.60;83.70
69739;DHT22;66905;51.012;4.724;2023-02-03T18:43:52;10.70;83.50
69739;DHT22;66905;51.012;4.724;2023-02-03T18:46:24;10.70;83.00
69739;DHT22;66905;51.012;4.724;2023-02-03T18:48:51;10.70;82.90